UBC Young Douglas Fir (YF) Site

Current climate data:

Measured at 19:00:00, 2017-10-22 (Local time)

 Air temperature        =   8.35 C 
 Relative humidity      =  80.82 % 
 Wind speed             =   0.16 m/s
 Wind direction         = 225.16  
 Barometric pressure    =  64.93 kPa 
 Precipitation (last 30 min) =   0.00 mm 
 Precipitation (24h totals ending at  4:00 AM today)  =  28.48 mm 
 Precipitation (24h totals ending at  7:00 PM today)  =   8.32 mm 
 Cumulative Precipitation (2017) =  NaN mm 

Current Picture (Time stamp:UTC)  (Full size image)

Fire index data:

Year  Month  Day  Hour  Tair(C) RH(%) Wind(m/s) W_Dir(deg)  Rain(mm)   ffmc     dmc      dc     bui     isi     fwi     dsr     Rating
2017      9   23   13   18.14   57.00    0.19     89.87      0.00     82.06   14.99   79.81   20.40    1.48    2.10    0.10       2  
2017      9   24   13   18.64   62.47    0.14    128.42      0.00     83.63   16.31   84.87   22.04    1.80    2.94    0.18       2  
2017      9   25   13   12.79   98.06    0.09    100.75      8.57     22.27    8.40   74.90   13.13    0.00    0.00    0.00       1  
2017      9   26   13   15.61   89.39    0.03     73.15      0.25     29.01    8.72   79.42   13.68    0.00    0.00    0.00       1  
2017      9   27   13   20.56   67.80    0.22    109.04      0.00     51.57    9.96   84.82   15.40    0.21    0.16    0.00       1  
2017      9   28   13   21.36   60.14    0.18     91.82      0.00     69.34   11.56   90.37   17.51    0.63    0.53    0.01       2  
2017      9   29   13   14.38   97.19    0.10     99.74      2.77     40.16    8.54   94.66   13.93    0.04    0.03    0.00       1  
2017      9   30   13   12.68   83.77    0.06    349.29      3.53     29.03    5.75   94.53    9.99    0.00    0.00    0.00       1  
2017     10    1   13   14.80   63.68    0.19      3.49      1.26     45.14    6.63   97.90   11.34    0.09    0.06    0.00       1  
2017     10    2   13   17.81   31.53    0.28    356.68      0.00     71.80    8.59  101.81   14.19    0.70    0.51    0.01       2  
2017     10    3   13   17.42   39.06    0.16     51.93      0.00     82.06   10.30  105.65   16.56    1.48    1.67    0.07       2  
2017     10    4   13   17.50   39.39    0.16     94.13      0.00     86.28   12.01  109.51   18.85    2.59    4.02    0.32       2  
2017     10    5   13   16.92   49.71    0.14     78.93      0.00     86.68   13.38  113.25   20.66    2.73    4.53    0.39       2  
2017     10    6   13   12.61   84.72    0.17    193.31      0.00     83.01   13.70  116.23   21.16    1.67    2.57    0.14       2  
2017     10    7   13   11.69   84.07    0.03    317.46      0.50     81.76   14.01  119.04   21.65    1.39    2.01    0.09       2  
2017     10    8   13   13.81   68.88    0.13     27.38      2.77     57.85   11.23  122.23   18.27    0.36    0.31    0.00       1  
2017     10    9   13   10.10   85.10    0.20    114.68      0.00     62.37   11.48  124.75   18.67    0.49    0.42    0.01       1  
2017     10   10   13    8.90   90.33    0.07    353.83      5.04     28.13    6.82  119.30   11.94    0.00    0.00    0.00       1  
2017     10   11   13    9.45   75.46    0.09    105.01      5.80     21.92    3.81  112.42    7.02    0.00    0.00    0.00       1  
2017     10   12   13    8.85   87.30    0.08     83.29      0.76     27.52    4.00  114.72    7.35    0.00    0.00    0.00       1  
2017     10   13   13   11.66   54.39    0.18      9.80      3.28     37.58    2.96  113.74    5.56    0.02    0.01    0.00       1  
2017     10   14   13    9.91   74.35    0.46    120.38      0.00     50.62    3.39  116.22    6.31    0.19    0.09    0.00       1  
2017     10   15   13   12.08   75.44    0.15    153.96      0.00     59.82    3.88  119.10    7.17    0.42    0.21    0.00       1  
2017     10   16   13    9.97   98.32    0.40    131.87     13.10     12.37    1.35   96.91    2.62    0.00    0.00    0.00       1  
2017     10   17   13   10.19   79.46    0.07    359.40     63.50     12.31    0.35   72.60    0.69    0.00    0.00    0.00       1  
2017     10   18   13    6.20   98.41    0.07    194.01     32.76      1.71    0.02   45.88    0.04    0.00    0.00    0.00       1  
2017     10   19   13    8.58   97.00    0.06    230.47     18.40      1.69    0.04   18.36    0.09    0.00    0.00    0.00       1  
2017     10   20   13    9.07   87.48    0.12    358.20      0.25      9.13    0.24   20.70    0.46    0.00    0.00    0.00       1  
2017     10   21   13    5.52  101.71    0.24    131.91     16.13      5.11    0.08    1.70    0.14    0.00    0.00    0.00       1  
2017     10   22   13    9.91   96.71    0.11     87.40     15.37      2.14    0.05    2.49    0.10    0.00    0.00    0.00       1  

(c) 2017 Biomet Group, University of British Columbia, Canada